sensor_id;sensor_type;location;lat;lon;timestamp;P1;durP1;ratioP1;P2;durP2;ratioP2
36725;SDS011;44936;52.086;5.150;2022-10-26T00:01:41;6.85;;;1.98;;
36725;SDS011;44936;52.086;5.150;2022-10-26T00:04:07;6.28;;;2.40;;
36725;SDS011;44936;52.086;5.150;2022-10-26T00:06:32;3.58;;;2.20;;
36725;SDS011;44936;52.086;5.150;2022-10-26T00:08:57;5.57;;;2.33;;
36725;SDS011;44936;52.086;5.150;2022-10-26T00:11:24;4.82;;;2.17;;
36725;SDS011;44936;52.086;5.150;2022-10-26T00:13:50;5.50;;;2.17;;
36725;SDS011;44936;52.086;5.150;2022-10-26T00:16:23;6.82;;;2.30;;
36725;SDS011;44936;52.086;5.150;2022-10-26T00:18:50;4.13;;;2.15;;
36725;SDS011;44936;52.086;5.150;2022-10-26T00:21:44;3.67;;;2.20;;
36725;SDS011;44936;52.086;5.150;2022-10-26T00:24:12;5.85;;;2.30;;
36725;SDS011;44936;52.086;5.150;2022-10-26T00:26:38;3.55;;;1.98;;
36725;SDS011;44936;52.086;5.150;2022-10-26T00:29:07;5.40;;;2.17;;
36725;SDS011;44936;52.086;5.150;2022-10-26T00:31:39;4.20;;;2.15;;
36725;SDS011;44936;52.086;5.150;2022-10-26T00:34:05;7.93;;;3.10;;
36725;SDS011;44936;52.086;5.150;2022-10-26T00:36:31;4.63;;;2.00;;
36725;SDS011;44936;52.086;5.150;2022-10-26T00:38:59;6.55;;;2.38;;
36725;SDS011;44936;52.086;5.150;2022-10-26T00:41:34;5.57;;;2.10;;
36725;SDS011;44936;52.086;5.150;2022-10-26T00:44:40;3.30;;;1.77;;
36725;SDS011;44936;52.086;5.150;2022-10-26T00:49:44;3.85;;;2.00;;
36725;SDS011;44936;52.086;5.150;2022-10-26T00:52:19;5.10;;;2.60;;
36725;SDS011;44936;52.086;5.150;2022-10-26T00:54:47;3.97;;;2.17;;
36725;SDS011;44936;52.086;5.150;2022-10-26T00:57:21;6.18;;;2.35;;
36725;SDS011;44936;52.086;5.150;2022-10-26T00:59:48;5.25;;;2.20;;
36725;SDS011;44936;52.086;5.150;2022-10-26T01:02:19;4.70;;;2.23;;
36725;SDS011;44936;52.086;5.150;2022-10-26T01:04:45;6.07;;;1.98;;
36725;SDS011;44936;52.086;5.150;2022-10-26T01:07:12;4.72;;;2.40;;
36725;SDS011;44936;52.086;5.150;2022-10-26T01:09:37;9.10;;;2.70;;
36725;SDS011;44936;52.086;5.150;2022-10-26T01:12:05;6.45;;;2.13;;
36725;SDS011;44936;52.086;5.150;2022-10-26T01:14:31;4.35;;;2.13;;
36725;SDS011;44936;52.086;5.150;2022-10-26T01:32:05;4.85;;;1.70;;
36725;SDS011;44936;52.086;5.150;2022-10-26T01:34:43;7.10;;;2.17;;
36725;SDS011;44936;52.086;5.150;2022-10-26T01:37:24;4.25;;;1.58;;
36725;SDS011;44936;52.086;5.150;2022-10-26T01:40:01;4.57;;;2.03;;
36725;SDS011;44936;52.086;5.150;2022-10-26T01:42:33;6.53;;;2.10;;
36725;SDS011;44936;52.086;5.150;2022-10-26T01:45:07;4.10;;;2.10;;
36725;SDS011;44936;52.086;5.150;2022-10-26T01:47:39;7.82;;;2.10;;
36725;SDS011;44936;52.086;5.150;2022-10-26T01:50:08;6.13;;;2.00;;
36725;SDS011;44936;52.086;5.150;2022-10-26T01:52:38;7.55;;;2.25;;
36725;SDS011;44936;52.086;5.150;2022-10-26T01:55:05;3.95;;;2.10;;
36725;SDS011;44936;52.086;5.150;2022-10-26T01:57:51;4.28;;;2.00;;
36725;SDS011;44936;52.086;5.150;2022-10-26T02:00:22;5.68;;;2.15;;
36725;SDS011;44936;52.086;5.150;2022-10-26T02:05:39;4.13;;;2.42;;
36725;SDS011;44936;52.086;5.150;2022-10-26T02:13:43;5.00;;;2.00;;
36725;SDS011;44936;52.086;5.150;2022-10-26T02:16:20;3.30;;;1.67;;
36725;SDS011;44936;52.086;5.150;2022-10-26T02:18:52;6.97;;;2.47;;
36725;SDS011;44936;52.086;5.150;2022-10-26T02:21:27;5.93;;;2.30;;
36725;SDS011;44936;52.086;5.150;2022-10-26T02:23:58;3.95;;;2.17;;
36725;SDS011;44936;52.086;5.150;2022-10-26T02:26:25;3.85;;;2.00;;
36725;SDS011;44936;52.086;5.150;2022-10-26T02:28:53;4.82;;;2.30;;
36725;SDS011;44936;52.086;5.150;2022-10-26T02:31:22;3.78;;;2.00;;
36725;SDS011;44936;52.086;5.150;2022-10-26T02:33:49;5.32;;;2.47;;
36725;SDS011;44936;52.086;5.150;2022-10-26T02:36:19;8.05;;;3.20;;
36725;SDS011;44936;52.086;5.150;2022-10-26T02:38:49;5.00;;;2.33;;
36725;SDS011;44936;52.086;5.150;2022-10-26T02:41:17;5.90;;;2.00;;
36725;SDS011;44936;52.086;5.150;2022-10-26T02:43:53;5.55;;;2.25;;
36725;SDS011;44936;52.086;5.150;2022-10-26T02:46:29;3.70;;;2.17;;
36725;SDS011;44936;52.086;5.150;2022-10-26T02:48:55;4.03;;;2.03;;
36725;SDS011;44936;52.086;5.150;2022-10-26T02:51:33;5.25;;;1.90;;
36725;SDS011;44936;52.086;5.150;2022-10-26T03:00:06;4.38;;;1.92;;
36725;SDS011;44936;52.086;5.150;2022-10-26T03:02:33;7.35;;;2.22;;
36725;SDS011;44936;52.086;5.150;2022-10-26T03:05:05;4.47;;;2.03;;
36725;SDS011;44936;52.086;5.150;2022-10-26T03:07:34;4.07;;;1.85;;
36725;SDS011;44936;52.086;5.150;2022-10-26T03:10:01;6.93;;;2.47;;
36725;SDS011;44936;52.086;5.150;2022-10-26T03:12:27;4.93;;;1.92;;
36725;SDS011;44936;52.086;5.150;2022-10-26T03:14:52;3.88;;;1.65;;
36725;SDS011;44936;52.086;5.150;2022-10-26T03:17:18;3.22;;;1.80;;
36725;SDS011;44936;52.086;5.150;2022-10-26T03:19:43;6.90;;;2.10;;
36725;SDS011;44936;52.086;5.150;2022-10-26T03:22:08;5.53;;;2.10;;
36725;SDS011;44936;52.086;5.150;2022-10-26T03:24:34;7.93;;;2.20;;
36725;SDS011;44936;52.086;5.150;2022-10-26T03:26:59;3.35;;;1.77;;
36725;SDS011;44936;52.086;5.150;2022-10-26T03:29:24;2.28;;;1.50;;
36725;SDS011;44936;52.086;5.150;2022-10-26T03:31:50;2.92;;;1.80;;
36725;SDS011;44936;52.086;5.150;2022-10-26T03:34:18;5.68;;;2.63;;
36725;SDS011;44936;52.086;5.150;2022-10-26T03:36:44;5.28;;;1.80;;
36725;SDS011;44936;52.086;5.150;2022-10-26T03:39:12;4.53;;;1.77;;
36725;SDS011;44936;52.086;5.150;2022-10-26T03:41:38;2.97;;;1.73;;
36725;SDS011;44936;52.086;5.150;2022-10-26T03:44:04;8.57;;;1.85;;
36725;SDS011;44936;52.086;5.150;2022-10-26T03:46:29;6.55;;;1.80;;
36725;SDS011;44936;52.086;5.150;2022-10-26T03:48:55;3.88;;;1.85;;
36725;SDS011;44936;52.086;5.150;2022-10-26T03:51:21;4.65;;;1.70;;
36725;SDS011;44936;52.086;5.150;2022-10-26T03:53:47;4.88;;;1.77;;
36725;SDS011;44936;52.086;5.150;2022-10-26T03:56:13;3.90;;;1.70;;
36725;SDS011;44936;52.086;5.150;2022-10-26T03:58:38;4.85;;;1.90;;
36725;SDS011;44936;52.086;5.150;2022-10-26T04:01:04;2.67;;;1.60;;
36725;SDS011;44936;52.086;5.150;2022-10-26T04:03:48;4.18;;;1.58;;
36725;SDS011;44936;52.086;5.150;2022-10-26T04:06:15;3.63;;;1.80;;
36725;SDS011;44936;52.086;5.150;2022-10-26T04:08:41;3.95;;;1.73;;
36725;SDS011;44936;52.086;5.150;2022-10-26T04:11:06;3.35;;;1.88;;
36725;SDS011;44936;52.086;5.150;2022-10-26T04:13:32;4.35;;;1.55;;
36725;SDS011;44936;52.086;5.150;2022-10-26T04:16:17;6.25;;;1.67;;
36725;SDS011;44936;52.086;5.150;2022-10-26T04:18:43;3.13;;;1.88;;
36725;SDS011;44936;52.086;5.150;2022-10-26T04:21:12;6.78;;;1.90;;
36725;SDS011;44936;52.086;5.150;2022-10-26T04:23:38;8.50;;;2.03;;
36725;SDS011;44936;52.086;5.150;2022-10-26T04:26:06;5.30;;;1.85;;
36725;SDS011;44936;52.086;5.150;2022-10-26T04:28:32;4.82;;;1.75;;
36725;SDS011;44936;52.086;5.150;2022-10-26T04:30:57;4.05;;;1.77;;
36725;SDS011;44936;52.086;5.150;2022-10-26T04:33:25;3.75;;;1.60;;
36725;SDS011;44936;52.086;5.150;2022-10-26T04:35:51;19.77;;;2.00;;
36725;SDS011;44936;52.086;5.150;2022-10-26T04:38:16;3.10;;;1.88;;
36725;SDS011;44936;52.086;5.150;2022-10-26T04:40:42;3.10;;;1.63;;
36725;SDS011;44936;52.086;5.150;2022-10-26T04:43:07;2.42;;;1.60;;
36725;SDS011;44936;52.086;5.150;2022-10-26T04:45:32;4.68;;;1.60;;
36725;SDS011;44936;52.086;5.150;2022-10-26T04:47:59;4.20;;;1.42;;
36725;SDS011;44936;52.086;5.150;2022-10-26T04:50:29;3.40;;;1.50;;
36725;SDS011;44936;52.086;5.150;2022-10-26T04:52:54;6.63;;;1.73;;
36725;SDS011;44936;52.086;5.150;2022-10-26T04:55:20;3.55;;;1.70;;
36725;SDS011;44936;52.086;5.150;2022-10-26T04:57:46;3.88;;;1.65;;
36725;SDS011;44936;52.086;5.150;2022-10-26T05:00:11;2.45;;;1.52;;
36725;SDS011;44936;52.086;5.150;2022-10-26T05:02:38;3.15;;;1.60;;
36725;SDS011;44936;52.086;5.150;2022-10-26T05:05:03;2.65;;;1.50;;
36725;SDS011;44936;52.086;5.150;2022-10-26T05:07:30;4.55;;;1.90;;
36725;SDS011;44936;52.086;5.150;2022-10-26T05:09:55;6.05;;;1.77;;
36725;SDS011;44936;52.086;5.150;2022-10-26T05:12:20;6.05;;;1.63;;
36725;SDS011;44936;52.086;5.150;2022-10-26T05:14:46;3.92;;;1.90;;
36725;SDS011;44936;52.086;5.150;2022-10-26T05:17:13;3.83;;;1.90;;
36725;SDS011;44936;52.086;5.150;2022-10-26T05:20:01;3.95;;;1.65;;
36725;SDS011;44936;52.086;5.150;2022-10-26T05:22:30;6.30;;;1.83;;
36725;SDS011;44936;52.086;5.150;2022-10-26T05:24:58;5.68;;;1.70;;
36725;SDS011;44936;52.086;5.150;2022-10-26T05:27:23;5.32;;;1.95;;
36725;SDS011;44936;52.086;5.150;2022-10-26T05:29:49;5.57;;;2.10;;
36725;SDS011;44936;52.086;5.150;2022-10-26T05:32:17;2.47;;;1.60;;
36725;SDS011;44936;52.086;5.150;2022-10-26T05:34:42;4.38;;;1.92;;
36725;SDS011;44936;52.086;5.150;2022-10-26T05:37:08;4.40;;;2.00;;
36725;SDS011;44936;52.086;5.150;2022-10-26T05:39:34;4.88;;;2.15;;
36725;SDS011;44936;52.086;5.150;2022-10-26T05:42:00;3.70;;;1.90;;
36725;SDS011;44936;52.086;5.150;2022-10-26T05:44:25;5.50;;;1.98;;
36725;SDS011;44936;52.086;5.150;2022-10-26T05:46:51;3.65;;;1.73;;
36725;SDS011;44936;52.086;5.150;2022-10-26T05:49:16;5.10;;;1.88;;
36725;SDS011;44936;52.086;5.150;2022-10-26T05:51:57;7.13;;;1.80;;
36725;SDS011;44936;52.086;5.150;2022-10-26T05:54:22;2.83;;;1.67;;
36725;SDS011;44936;52.086;5.150;2022-10-26T05:56:48;3.40;;;1.70;;
36725;SDS011;44936;52.086;5.150;2022-10-26T05:59:14;4.82;;;2.10;;
36725;SDS011;44936;52.086;5.150;2022-10-26T06:04:29;3.28;;;1.80;;
36725;SDS011;44936;52.086;5.150;2022-10-26T06:07:11;3.35;;;1.75;;
36725;SDS011;44936;52.086;5.150;2022-10-26T06:09:40;2.08;;;1.40;;
36725;SDS011;44936;52.086;5.150;2022-10-26T06:12:08;3.85;;;1.83;;
36725;SDS011;44936;52.086;5.150;2022-10-26T06:14:34;5.93;;;2.03;;
36725;SDS011;44936;52.086;5.150;2022-10-26T06:30:38;3.17;;;1.90;;
36725;SDS011;44936;52.086;5.150;2022-10-26T06:33:04;3.92;;;1.70;;
36725;SDS011;44936;52.086;5.150;2022-10-26T06:35:38;5.38;;;2.05;;
36725;SDS011;44936;52.086;5.150;2022-10-26T06:38:12;4.53;;;1.45;;
36725;SDS011;44936;52.086;5.150;2022-10-26T06:40:42;4.85;;;1.65;;
36725;SDS011;44936;52.086;5.150;2022-10-26T06:43:19;3.28;;;1.65;;
36725;SDS011;44936;52.086;5.150;2022-10-26T06:45:50;4.55;;;1.85;;
36725;SDS011;44936;52.086;5.150;2022-10-26T06:48:24;3.53;;;1.80;;
36725;SDS011;44936;52.086;5.150;2022-10-26T06:50:56;4.43;;;1.70;;
36725;SDS011;44936;52.086;5.150;2022-10-26T06:56:08;5.38;;;2.00;;
36725;SDS011;44936;52.086;5.150;2022-10-26T06:58:35;2.70;;;1.65;;
36725;SDS011;44936;52.086;5.150;2022-10-26T07:01:07;3.72;;;1.80;;
36725;SDS011;44936;52.086;5.150;2022-10-26T07:03:35;3.30;;;1.73;;
36725;SDS011;44936;52.086;5.150;2022-10-26T07:06:00;3.13;;;1.98;;
36725;SDS011;44936;52.086;5.150;2022-10-26T07:08:32;4.30;;;2.20;;
36725;SDS011;44936;52.086;5.150;2022-10-26T07:10:58;2.05;;;1.58;;
36725;SDS011;44936;52.086;5.150;2022-10-26T07:13:24;4.63;;;2.03;;
36725;SDS011;44936;52.086;5.150;2022-10-26T07:15:49;3.65;;;1.70;;
36725;SDS011;44936;52.086;5.150;2022-10-26T07:18:14;5.72;;;1.98;;
36725;SDS011;44936;52.086;5.150;2022-10-26T07:20:40;3.00;;;1.65;;
36725;SDS011;44936;52.086;5.150;2022-10-26T07:23:07;3.88;;;1.73;;
36725;SDS011;44936;52.086;5.150;2022-10-26T07:25:37;2.92;;;1.83;;
36725;SDS011;44936;52.086;5.150;2022-10-26T07:28:05;3.25;;;1.73;;
36725;SDS011;44936;52.086;5.150;2022-10-26T07:30:37;4.88;;;1.70;;
36725;SDS011;44936;52.086;5.150;2022-10-26T07:33:08;3.95;;;1.70;;
36725;SDS011;44936;52.086;5.150;2022-10-26T07:35:36;5.80;;;2.38;;
36725;SDS011;44936;52.086;5.150;2022-10-26T07:38:04;3.30;;;2.10;;
36725;SDS011;44936;52.086;5.150;2022-10-26T07:40:31;5.53;;;2.10;;
36725;SDS011;44936;52.086;5.150;2022-10-26T07:43:09;2.53;;;1.70;;
36725;SDS011;44936;52.086;5.150;2022-10-26T07:45:34;5.55;;;1.88;;
36725;SDS011;44936;52.086;5.150;2022-10-26T07:48:00;4.07;;;1.67;;
36725;SDS011;44936;52.086;5.150;2022-10-26T07:50:26;3.92;;;1.90;;
36725;SDS011;44936;52.086;5.150;2022-10-26T07:52:52;7.90;;;2.33;;
36725;SDS011;44936;52.086;5.150;2022-10-26T07:55:18;6.07;;;2.00;;
36725;SDS011;44936;52.086;5.150;2022-10-26T07:57:45;4.75;;;2.03;;
36725;SDS011;44936;52.086;5.150;2022-10-26T08:00:11;3.10;;;1.75;;
36725;SDS011;44936;52.086;5.150;2022-10-26T08:02:37;5.55;;;1.83;;
36725;SDS011;44936;52.086;5.150;2022-10-26T08:05:02;4.80;;;2.00;;
36725;SDS011;44936;52.086;5.150;2022-10-26T08:07:28;4.78;;;1.98;;
36725;SDS011;44936;52.086;5.150;2022-10-26T08:09:54;4.68;;;2.17;;
36725;SDS011;44936;52.086;5.150;2022-10-26T08:12:19;3.67;;;1.90;;
36725;SDS011;44936;52.086;5.150;2022-10-26T08:14:45;4.55;;;2.10;;
36725;SDS011;44936;52.086;5.150;2022-10-26T08:17:10;3.47;;;1.92;;
36725;SDS011;44936;52.086;5.150;2022-10-26T08:19:36;5.70;;;1.90;;
36725;SDS011;44936;52.086;5.150;2022-10-26T08:22:01;4.85;;;1.77;;
36725;SDS011;44936;52.086;5.150;2022-10-26T08:24:27;2.97;;;1.67;;
36725;SDS011;44936;52.086;5.150;2022-10-26T08:26:53;5.90;;;2.08;;
36725;SDS011;44936;52.086;5.150;2022-10-26T08:29:18;3.55;;;1.75;;
36725;SDS011;44936;52.086;5.150;2022-10-26T08:31:44;4.00;;;1.80;;
36725;SDS011;44936;52.086;5.150;2022-10-26T08:34:11;6.00;;;2.00;;
36725;SDS011;44936;52.086;5.150;2022-10-26T08:36:37;6.30;;;1.70;;
36725;SDS011;44936;52.086;5.150;2022-10-26T08:39:02;3.78;;;1.40;;
36725;SDS011;44936;52.086;5.150;2022-10-26T08:41:44;3.67;;;1.42;;
36725;SDS011;44936;52.086;5.150;2022-10-26T08:44:21;3.78;;;1.60;;
36725;SDS011;44936;52.086;5.150;2022-10-26T08:46:54;5.75;;;1.60;;
36725;SDS011;44936;52.086;5.150;2022-10-26T08:49:39;3.10;;;1.75;;
36725;SDS011;44936;52.086;5.150;2022-10-26T08:55:27;4.80;;;1.48;;
36725;SDS011;44936;52.086;5.150;2022-10-26T08:58:02;2.45;;;1.25;;
36725;SDS011;44936;52.086;5.150;2022-10-26T09:00:31;2.67;;;1.48;;
36725;SDS011;44936;52.086;5.150;2022-10-26T09:02:57;2.45;;;1.38;;
36725;SDS011;44936;52.086;5.150;2022-10-26T09:05:40;4.50;;;1.50;;
36725;SDS011;44936;52.086;5.150;2022-10-26T09:16:54;3.00;;;1.30;;
36725;SDS011;44936;52.086;5.150;2022-10-26T09:24:55;1.92;;;0.95;;
36725;SDS011;44936;52.086;5.150;2022-10-26T09:27:28;3.58;;;1.30;;
36725;SDS011;44936;52.086;5.150;2022-10-26T09:32:48;4.25;;;1.50;;
36725;SDS011;44936;52.086;5.150;2022-10-26T09:38:00;4.20;;;1.40;;
36725;SDS011;44936;52.086;5.150;2022-10-26T09:41:03;2.58;;;1.48;;
36725;SDS011;44936;52.086;5.150;2022-10-26T09:46:24;1.73;;;1.20;;
36725;SDS011;44936;52.086;5.150;2022-10-26T09:48:56;3.60;;;1.40;;
36725;SDS011;44936;52.086;5.150;2022-10-26T09:51:25;5.35;;;1.38;;
36725;SDS011;44936;52.086;5.150;2022-10-26T09:53:51;4.40;;;1.50;;
36725;SDS011;44936;52.086;5.150;2022-10-26T09:56:21;4.03;;;1.50;;
36725;SDS011;44936;52.086;5.150;2022-10-26T09:58:47;1.52;;;1.10;;
36725;SDS011;44936;52.086;5.150;2022-10-26T10:01:21;3.85;;;1.58;;
36725;SDS011;44936;52.086;5.150;2022-10-26T10:06:42;2.92;;;1.33;;
36725;SDS011;44936;52.086;5.150;2022-10-26T10:09:12;5.43;;;1.42;;
36725;SDS011;44936;52.086;5.150;2022-10-26T10:14:22;4.22;;;1.20;;
36725;SDS011;44936;52.086;5.150;2022-10-26T10:16:49;3.10;;;1.70;;
36725;SDS011;44936;52.086;5.150;2022-10-26T10:19:20;2.60;;;1.30;;
36725;SDS011;44936;52.086;5.150;2022-10-26T10:21:49;2.45;;;1.70;;
36725;SDS011;44936;52.086;5.150;2022-10-26T10:24:22;2.38;;;1.30;;
36725;SDS011;44936;52.086;5.150;2022-10-26T10:29:41;3.97;;;1.30;;
36725;SDS011;44936;52.086;5.150;2022-10-26T10:32:21;2.72;;;1.75;;
36725;SDS011;44936;52.086;5.150;2022-10-26T10:34:49;1.92;;;0.90;;
36725;SDS011;44936;52.086;5.150;2022-10-26T10:37:25;3.70;;;1.35;;
36725;SDS011;44936;52.086;5.150;2022-10-26T10:40:35;2.95;;;1.15;;
36725;SDS011;44936;52.086;5.150;2022-10-26T10:42:44;3.42;;;1.48;;
36725;SDS011;44936;52.086;5.150;2022-10-26T10:45:21;4.00;;;1.48;;
36725;SDS011;44936;52.086;5.150;2022-10-26T10:48:04;4.70;;;1.38;;
36725;SDS011;44936;52.086;5.150;2022-10-26T10:50:37;2.72;;;1.10;;
36725;SDS011;44936;52.086;5.150;2022-10-26T10:53:13;3.15;;;1.70;;
36725;SDS011;44936;52.086;5.150;2022-10-26T10:56:12;5.00;;;1.40;;
36725;SDS011;44936;52.086;5.150;2022-10-26T11:01:39;3.00;;;1.60;;
36725;SDS011;44936;52.086;5.150;2022-10-26T11:04:27;3.15;;;1.33;;
36725;SDS011;44936;52.086;5.150;2022-10-26T11:07:16;3.67;;;1.75;;
36725;SDS011;44936;52.086;5.150;2022-10-26T11:09:46;2.38;;;1.30;;
36725;SDS011;44936;52.086;5.150;2022-10-26T11:12:17;5.55;;;1.50;;
36725;SDS011;44936;52.086;5.150;2022-10-26T11:14:53;4.55;;;1.45;;
36725;SDS011;44936;52.086;5.150;2022-10-26T11:17:27;5.78;;;1.40;;
36725;SDS011;44936;52.086;5.150;2022-10-26T11:20:02;2.17;;;1.23;;
36725;SDS011;44936;52.086;5.150;2022-10-26T11:25:32;3.20;;;1.40;;
36725;SDS011;44936;52.086;5.150;2022-10-26T11:28:13;3.40;;;1.30;;
36725;SDS011;44936;52.086;5.150;2022-10-26T11:31:05;1.20;;;1.10;;
36725;SDS011;44936;52.086;5.150;2022-10-26T11:33:41;4.00;;;1.10;;
36725;SDS011;44936;52.086;5.150;2022-10-26T11:36:14;3.05;;;1.20;;
36725;SDS011;44936;52.086;5.150;2022-10-26T11:38:45;2.40;;;1.30;;
36725;SDS011;44936;52.086;5.150;2022-10-26T11:41:19;2.92;;;1.13;;
36725;SDS011;44936;52.086;5.150;2022-10-26T11:46:55;1.65;;;1.10;;
36725;SDS011;44936;52.086;5.150;2022-10-26T11:49:32;4.00;;;1.33;;
36725;SDS011;44936;52.086;5.150;2022-10-26T11:52:11;3.92;;;1.00;;
36725;SDS011;44936;52.086;5.150;2022-10-26T11:57:24;5.47;;;1.20;;
36725;SDS011;44936;52.086;5.150;2022-10-26T12:00:03;1.98;;;1.40;;
36725;SDS011;44936;52.086;5.150;2022-10-26T12:02:41;1.75;;;1.30;;
36725;SDS011;44936;52.086;5.150;2022-10-26T12:07:53;7.72;;;1.15;;
36725;SDS011;44936;52.086;5.150;2022-10-26T12:10:25;1.00;;;0.90;;
36725;SDS011;44936;52.086;5.150;2022-10-26T12:15:40;2.17;;;0.90;;
36725;SDS011;44936;52.086;5.150;2022-10-26T12:18:15;3.75;;;0.93;;
36725;SDS011;44936;52.086;5.150;2022-10-26T12:21:07;1.65;;;1.10;;
36725;SDS011;44936;52.086;5.150;2022-10-26T12:23:38;3.47;;;1.23;;
36725;SDS011;44936;52.086;5.150;2022-10-26T12:34:21;2.42;;;1.10;;
36725;SDS011;44936;52.086;5.150;2022-10-26T12:44:32;3.65;;;0.93;;
36725;SDS011;44936;52.086;5.150;2022-10-26T12:46:58;2.28;;;1.00;;
36725;SDS011;44936;52.086;5.150;2022-10-26T12:55:07;1.50;;;1.40;;
36725;SDS011;44936;52.086;5.150;2022-10-26T13:00:15;2.50;;;1.25;;
36725;SDS011;44936;52.086;5.150;2022-10-26T13:05:44;3.30;;;1.50;;
36725;SDS011;44936;52.086;5.150;2022-10-26T13:08:16;1.55;;;1.45;;
36725;SDS011;44936;52.086;5.150;2022-10-26T13:10:45;4.13;;;1.58;;
36725;SDS011;44936;52.086;5.150;2022-10-26T13:13:52;3.75;;;1.50;;
36725;SDS011;44936;52.086;5.150;2022-10-26T13:16:20;2.95;;;1.40;;
36725;SDS011;44936;52.086;5.150;2022-10-26T13:18:50;4.13;;;1.52;;
36725;SDS011;44936;52.086;5.150;2022-10-26T13:21:17;2.92;;;1.33;;
36725;SDS011;44936;52.086;5.150;2022-10-26T13:26:20;1.73;;;1.25;;
36725;SDS011;44936;52.086;5.150;2022-10-26T13:28:52;5.88;;;1.20;;
36725;SDS011;44936;52.086;5.150;2022-10-26T13:33:56;2.70;;;1.10;;
36725;SDS011;44936;52.086;5.150;2022-10-26T13:39:21;2.10;;;1.00;;
36725;SDS011;44936;52.086;5.150;2022-10-26T13:41:50;2.50;;;1.15;;
36725;SDS011;44936;52.086;5.150;2022-10-26T13:44:19;5.80;;;1.05;;
36725;SDS011;44936;52.086;5.150;2022-10-26T13:46:50;2.03;;;0.95;;
36725;SDS011;44936;52.086;5.150;2022-10-26T13:49:22;1.10;;;0.88;;
36725;SDS011;44936;52.086;5.150;2022-10-26T13:51:52;2.47;;;0.80;;
36725;SDS011;44936;52.086;5.150;2022-10-26T13:57:37;1.85;;;0.88;;
36725;SDS011;44936;52.086;5.150;2022-10-26T14:02:40;3.08;;;0.73;;
36725;SDS011;44936;52.086;5.150;2022-10-26T14:05:08;2.08;;;0.70;;
36725;SDS011;44936;52.086;5.150;2022-10-26T14:07:44;2.80;;;0.80;;
36725;SDS011;44936;52.086;5.150;2022-10-26T14:13:05;3.30;;;0.70;;
36725;SDS011;44936;52.086;5.150;2022-10-26T14:15:44;3.00;;;0.80;;
36725;SDS011;44936;52.086;5.150;2022-10-26T14:18:13;3.75;;;0.73;;
36725;SDS011;44936;52.086;5.150;2022-10-26T14:20:56;2.90;;;1.50;;
36725;SDS011;44936;52.086;5.150;2022-10-26T14:23:31;1.23;;;0.70;;
36725;SDS011;44936;52.086;5.150;2022-10-26T14:26:30;3.17;;;1.17;;
36725;SDS011;44936;52.086;5.150;2022-10-26T14:29:03;1.20;;;0.60;;
36725;SDS011;44936;52.086;5.150;2022-10-26T14:31:42;3.97;;;0.80;;
36725;SDS011;44936;52.086;5.150;2022-10-26T14:34:08;2.10;;;0.68;;
36725;SDS011;44936;52.086;5.150;2022-10-26T14:36:37;1.42;;;0.82;;
36725;SDS011;44936;52.086;5.150;2022-10-26T14:39:17;2.67;;;0.93;;
36725;SDS011;44936;52.086;5.150;2022-10-26T14:41:53;2.65;;;0.70;;
36725;SDS011;44936;52.086;5.150;2022-10-26T14:44:20;0.82;;;0.60;;
36725;SDS011;44936;52.086;5.150;2022-10-26T14:46:53;4.38;;;0.70;;
36725;SDS011;44936;52.086;5.150;2022-10-26T14:49:20;3.45;;;0.93;;
36725;SDS011;44936;52.086;5.150;2022-10-26T14:51:47;2.60;;;0.93;;
36725;SDS011;44936;52.086;5.150;2022-10-26T14:54:30;1.35;;;0.70;;
36725;SDS011;44936;52.086;5.150;2022-10-26T14:57:00;1.70;;;0.60;;
36725;SDS011;44936;52.086;5.150;2022-10-26T14:59:32;1.65;;;0.70;;
36725;SDS011;44936;52.086;5.150;2022-10-26T15:04:59;3.60;;;0.90;;
36725;SDS011;44936;52.086;5.150;2022-10-26T15:07:36;3.65;;;0.75;;
36725;SDS011;44936;52.086;5.150;2022-10-26T15:10:03;2.25;;;0.80;;
36725;SDS011;44936;52.086;5.150;2022-10-26T15:12:33;2.65;;;0.70;;
36725;SDS011;44936;52.086;5.150;2022-10-26T15:17:54;1.88;;;0.52;;
36725;SDS011;44936;52.086;5.150;2022-10-26T15:20:23;1.15;;;0.73;;
36725;SDS011;44936;52.086;5.150;2022-10-26T15:22:52;1.95;;;0.65;;
36725;SDS011;44936;52.086;5.150;2022-10-26T15:25:21;1.67;;;0.95;;
36725;SDS011;44936;52.086;5.150;2022-10-26T15:27:49;3.22;;;0.80;;
36725;SDS011;44936;52.086;5.150;2022-10-26T15:32:50;0.95;;;0.80;;
36725;SDS011;44936;52.086;5.150;2022-10-26T15:35:21;4.30;;;0.80;;
36725;SDS011;44936;52.086;5.150;2022-10-26T15:37:54;1.65;;;0.90;;
36725;SDS011;44936;52.086;5.150;2022-10-26T15:40:21;2.17;;;0.60;;
36725;SDS011;44936;52.086;5.150;2022-10-26T15:42:49;2.90;;;0.65;;
36725;SDS011;44936;52.086;5.150;2022-10-26T15:47:44;1.50;;;0.77;;
36725;SDS011;44936;52.086;5.150;2022-10-26T15:50:18;0.65;;;0.55;;
36725;SDS011;44936;52.086;5.150;2022-10-26T15:52:49;2.50;;;0.82;;
36725;SDS011;44936;52.086;5.150;2022-10-26T15:55:23;2.38;;;0.73;;
36725;SDS011;44936;52.086;5.150;2022-10-26T15:57:49;3.33;;;0.70;;
36725;SDS011;44936;52.086;5.150;2022-10-26T16:00:34;0.75;;;0.60;;
36725;SDS011;44936;52.086;5.150;2022-10-26T16:03:03;1.30;;;0.57;;
36725;SDS011;44936;52.086;5.150;2022-10-26T16:05:28;0.70;;;0.30;;
36725;SDS011;44936;52.086;5.150;2022-10-26T16:07:54;3.83;;;0.70;;
36725;SDS011;44936;52.086;5.150;2022-10-26T16:10:20;0.55;;;0.52;;
36725;SDS011;44936;52.086;5.150;2022-10-26T16:12:47;1.13;;;0.55;;
36725;SDS011;44936;52.086;5.150;2022-10-26T16:15:15;0.75;;;0.60;;
36725;SDS011;44936;52.086;5.150;2022-10-26T16:17:48;2.45;;;1.02;;
36725;SDS011;44936;52.086;5.150;2022-10-26T16:20:18;2.30;;;0.70;;
36725;SDS011;44936;52.086;5.150;2022-10-26T16:22:47;2.25;;;0.55;;
36725;SDS011;44936;52.086;5.150;2022-10-26T16:25:21;3.08;;;0.50;;
36725;SDS011;44936;52.086;5.150;2022-10-26T16:27:48;1.23;;;0.82;;
36725;SDS011;44936;52.086;5.150;2022-10-26T16:30:15;2.63;;;0.70;;
36725;SDS011;44936;52.086;5.150;2022-10-26T16:32:41;3.83;;;0.90;;
36725;SDS011;44936;52.086;5.150;2022-10-26T16:35:07;3.20;;;0.75;;
36725;SDS011;44936;52.086;5.150;2022-10-26T16:37:34;2.45;;;0.50;;
36725;SDS011;44936;52.086;5.150;2022-10-26T16:39:59;4.60;;;0.63;;
36725;SDS011;44936;52.086;5.150;2022-10-26T16:42:25;1.60;;;0.80;;
36725;SDS011;44936;52.086;5.150;2022-10-26T16:44:52;1.30;;;0.93;;
36725;SDS011;44936;52.086;5.150;2022-10-26T16:47:20;1.77;;;0.90;;
36725;SDS011;44936;52.086;5.150;2022-10-26T16:49:49;2.10;;;0.85;;
36725;SDS011;44936;52.086;5.150;2022-10-26T16:52:14;1.42;;;0.68;;
36725;SDS011;44936;52.086;5.150;2022-10-26T16:54:40;1.73;;;0.70;;
36725;SDS011;44936;52.086;5.150;2022-10-26T16:57:06;1.88;;;0.50;;
36725;SDS011;44936;52.086;5.150;2022-10-26T16:59:31;1.08;;;0.70;;
36725;SDS011;44936;52.086;5.150;2022-10-26T17:01:57;2.50;;;0.63;;
36725;SDS011;44936;52.086;5.150;2022-10-26T17:04:24;1.73;;;0.63;;
36725;SDS011;44936;52.086;5.150;2022-10-26T17:06:49;2.50;;;0.80;;
36725;SDS011;44936;52.086;5.150;2022-10-26T17:09:14;2.30;;;0.82;;
36725;SDS011;44936;52.086;5.150;2022-10-26T17:11:40;3.65;;;0.57;;
36725;SDS011;44936;52.086;5.150;2022-10-26T17:14:05;3.10;;;0.75;;
36725;SDS011;44936;52.086;5.150;2022-10-26T17:16:33;1.02;;;0.55;;
36725;SDS011;44936;52.086;5.150;2022-10-26T17:19:01;2.10;;;0.60;;
36725;SDS011;44936;52.086;5.150;2022-10-26T17:21:33;1.92;;;0.70;;
36725;SDS011;44936;52.086;5.150;2022-10-26T17:23:59;2.10;;;0.70;;
36725;SDS011;44936;52.086;5.150;2022-10-26T17:26:25;1.30;;;0.60;;
36725;SDS011;44936;52.086;5.150;2022-10-26T17:28:52;1.75;;;0.65;;
36725;SDS011;44936;52.086;5.150;2022-10-26T17:31:20;1.58;;;0.70;;
36725;SDS011;44936;52.086;5.150;2022-10-26T17:33:46;2.03;;;0.50;;
36725;SDS011;44936;52.086;5.150;2022-10-26T17:36:18;0.85;;;0.60;;
36725;SDS011;44936;52.086;5.150;2022-10-26T17:38:49;0.70;;;0.70;;
36725;SDS011;44936;52.086;5.150;2022-10-26T17:41:20;3.13;;;0.65;;
36725;SDS011;44936;52.086;5.150;2022-10-26T17:43:47;2.47;;;0.65;;